Strona główna
METAR-TAF:

METAR-TAF

Lotnisko :

Taunton Municipal Airport (King Field)

Taunton, Massachusetts, Stany Zjednoczone

Szerokość geograficzna: 41-52-32N, Długość geograficzna: 071-01-16W, wysokość: 13 m

Aktualna obserwacja pogody

Raport powstał 47 minut temu, godzina 00:52 UTC
Wiatr 3 kt od północny zachód
Temperatura -5°C
Wilgotność 32%
Ciśnienie 1026 hPa
Widzialność: 16.1 km
bezchmurnie

METAR: KTAN 210052Z AUTO 31003KT 10SM CLR M05/M19 A3029 RMK AO2 SLP258 T10501189

czas: 20:39 (01:39 UTC)


TAF: brakujący

Obserwacja i prognoza pogody dla ponad 4000 lotnisk (raport METAR i TAF).

Dostępne stacje oznaczono żółtymi i czerwonymi punktami na mapie.

Najedź kursorem aby zobaczyć nazwę stacji.

Kliknij aby zobaczyć obserwacje i prognozy pogody.

Aby zmienić mapę: kliknij na zielony przycisk z czarnym krzyżykiem, aby powiększyć; na zielony przycisk z myślnikiem, aby pomniejszyć; na zielone strzałki, aby przejść do map sąsiednich.


METAR-TAF: